sensor_id;sensor_type;location;lat;lon;timestamp;pressure;altitude;pressure_sealevel;temperature;humidity
32320;BME280;19080;51.750;5.888;2023-05-19T00:02:00;102465.94;;;9.75;100.00
32320;BME280;19080;51.750;5.888;2023-05-19T00:04:30;102466.56;;;9.70;100.00
32320;BME280;19080;51.750;5.888;2023-05-19T00:06:59;102357.03;;;9.11;100.00
32320;BME280;19080;51.750;5.888;2023-05-19T00:09:27;102472.91;;;9.73;100.00
32320;BME280;19080;51.750;5.888;2023-05-19T00:11:54;102457.34;;;9.62;100.00
32320;BME280;19080;51.750;5.888;2023-05-19T00:14:22;102471.59;;;9.64;100.00
32320;BME280;19080;51.750;5.888;2023-05-19T00:16:49;102444.25;;;9.45;100.00
32320;BME280;19080;51.750;5.888;2023-05-19T00:19:15;102473.91;;;9.56;100.00
32320;BME280;19080;51.750;5.888;2023-05-19T00:21:43;102351.59;;;8.89;100.00
32320;BME280;19080;51.750;5.888;2023-05-19T00:24:09;102473.75;;;9.53;100.00
32320;BME280;19080;51.750;5.888;2023-05-19T00:26:36;102474.03;;;9.59;100.00
32320;BME280;19080;51.750;5.888;2023-05-19T00:29:04;102470.28;;;9.54;100.00
32320;BME280;19080;51.750;5.888;2023-05-19T00:31:30;102441.13;;;9.35;100.00
32320;BME280;19080;51.750;5.888;2023-05-19T00:33:59;102459.81;;;9.38;100.00
32320;BME280;19080;51.750;5.888;2023-05-19T00:36:26;102379.13;;;8.93;100.00
32320;BME280;19080;51.750;5.888;2023-05-19T00:38:54;102348.03;;;8.89;100.00
32320;BME280;19080;51.750;5.888;2023-05-19T00:41:21;102405.00;;;9.18;100.00
32320;BME280;19080;51.750;5.888;2023-05-19T00:43:48;102340.56;;;8.80;100.00
32320;BME280;19080;51.750;5.888;2023-05-19T00:46:16;102452.00;;;9.41;100.00
32320;BME280;19080;51.750;5.888;2023-05-19T00:48:43;102415.03;;;9.25;100.00
32320;BME280;19080;51.750;5.888;2023-05-19T00:51:12;102407.72;;;9.19;100.00
32320;BME280;19080;51.750;5.888;2023-05-19T00:53:43;102432.19;;;9.33;100.00
32320;BME280;19080;51.750;5.888;2023-05-19T00:56:14;102431.13;;;9.29;100.00
32320;BME280;19080;51.750;5.888;2023-05-19T00:58:42;102424.78;;;9.26;100.00
32320;BME280;19080;51.750;5.888;2023-05-19T01:01:09;102430.09;;;9.26;100.00
32320;BME280;19080;51.750;5.888;2023-05-19T01:03:37;102387.34;;;8.99;100.00
32320;BME280;19080;51.750;5.888;2023-05-19T01:06:06;102407.22;;;9.08;100.00
32320;BME280;19080;51.750;5.888;2023-05-19T01:08:35;102412.59;;;9.10;100.00
32320;BME280;19080;51.750;5.888;2023-05-19T01:11:03;102434.19;;;9.19;100.00
32320;BME280;19080;51.750;5.888;2023-05-19T01:13:30;102183.28;;;7.80;100.00
32320;BME280;19080;51.750;5.888;2023-05-19T01:16:04;102439.50;;;9.19;100.00
32320;BME280;19080;51.750;5.888;2023-05-19T01:19:03;102432.25;;;9.15;100.00
32320;BME280;19080;51.750;5.888;2023-05-19T01:31:59;102390.59;;;8.74;100.00
32320;BME280;19080;51.750;5.888;2023-05-19T01:34:26;102344.47;;;8.50;100.00
32320;BME280;19080;51.750;5.888;2023-05-19T01:36:54;102415.00;;;8.86;100.00
32320;BME280;19080;51.750;5.888;2023-05-19T01:39:22;102426.72;;;8.91;100.00
32320;BME280;19080;51.750;5.888;2023-05-19T01:41:51;102431.94;;;8.90;100.00
32320;BME280;19080;51.750;5.888;2023-05-19T01:44:20;102440.84;;;8.92;100.00
32320;BME280;19080;51.750;5.888;2023-05-19T01:46:48;102429.28;;;8.90;100.00
32320;BME280;19080;51.750;5.888;2023-05-19T01:49:15;102425.00;;;8.74;100.00
32320;BME280;19080;51.750;5.888;2023-05-19T01:51:43;102424.16;;;8.75;100.00
32320;BME280;19080;51.750;5.888;2023-05-19T01:54:10;102435.75;;;8.77;100.00
32320;BME280;19080;51.750;5.888;2023-05-19T01:56:57;102436.28;;;8.70;100.00
32320;BME280;19080;51.750;5.888;2023-05-19T01:59:51;102425.69;;;8.70;100.00
32320;BME280;19080;51.750;5.888;2023-05-19T02:04:56;102369.34;;;8.35;100.00
32320;BME280;19080;51.750;5.888;2023-05-19T02:07:43;102412.72;;;8.57;100.00
32320;BME280;19080;51.750;5.888;2023-05-19T02:10:21;102414.69;;;8.61;100.00
32320;BME280;19080;51.750;5.888;2023-05-19T02:12:52;102411.97;;;8.59;100.00
32320;BME280;19080;51.750;5.888;2023-05-19T02:15:24;102407.28;;;8.54;100.00
32320;BME280;19080;51.750;5.888;2023-05-19T02:17:56;102391.72;;;8.42;100.00
32320;BME280;19080;51.750;5.888;2023-05-19T02:20:25;102425.97;;;8.57;100.00
32320;BME280;19080;51.750;5.888;2023-05-19T02:22:52;102394.28;;;8.40;100.00
32320;BME280;19080;51.750;5.888;2023-05-19T02:25:18;102409.78;;;8.51;100.00
32320;BME280;19080;51.750;5.888;2023-05-19T02:27:45;102407.00;;;8.47;100.00
32320;BME280;19080;51.750;5.888;2023-05-19T02:30:12;102391.34;;;8.34;100.00
32320;BME280;19080;51.750;5.888;2023-05-19T02:32:38;102301.63;;;7.86;100.00
32320;BME280;19080;51.750;5.888;2023-05-19T02:35:05;102411.84;;;8.38;100.00
32320;BME280;19080;51.750;5.888;2023-05-19T02:37:32;102320.34;;;7.90;100.00
32320;BME280;19080;51.750;5.888;2023-05-19T02:39:59;102359.66;;;8.18;100.00
32320;BME280;19080;51.750;5.888;2023-05-19T02:42:26;102404.72;;;8.37;100.00
32320;BME280;19080;51.750;5.888;2023-05-19T02:44:53;102414.47;;;8.38;100.00
32320;BME280;19080;51.750;5.888;2023-05-19T02:47:20;102406.53;;;8.38;100.00
32320;BME280;19080;51.750;5.888;2023-05-19T02:49:47;102389.19;;;8.27;100.00
32320;BME280;19080;51.750;5.888;2023-05-19T02:52:14;102297.84;;;7.80;100.00
32320;BME280;19080;51.750;5.888;2023-05-19T02:54:41;102383.97;;;8.29;100.00
32320;BME280;19080;51.750;5.888;2023-05-19T02:57:07;102388.06;;;8.22;100.00
32320;BME280;19080;51.750;5.888;2023-05-19T02:59:34;102398.94;;;8.28;100.00
32320;BME280;19080;51.750;5.888;2023-05-19T03:02:02;102398.94;;;8.28;100.00
32320;BME280;19080;51.750;5.888;2023-05-19T03:04:28;102294.50;;;7.67;100.00
32320;BME280;19080;51.750;5.888;2023-05-19T03:06:55;102374.47;;;8.14;100.00
32320;BME280;19080;51.750;5.888;2023-05-19T03:09:23;102378.09;;;8.16;100.00
32320;BME280;19080;51.750;5.888;2023-05-19T03:11:50;102369.78;;;8.09;100.00
32320;BME280;19080;51.750;5.888;2023-05-19T03:14:16;102397.75;;;8.22;100.00
32320;BME280;19080;51.750;5.888;2023-05-19T03:16:44;102391.38;;;8.18;100.00
32320;BME280;19080;51.750;5.888;2023-05-19T03:19:11;102286.50;;;7.65;100.00
32320;BME280;19080;51.750;5.888;2023-05-19T03:21:38;102388.75;;;8.18;100.00
32320;BME280;19080;51.750;5.888;2023-05-19T03:24:05;102383.97;;;8.11;100.00
32320;BME280;19080;51.750;5.888;2023-05-19T03:26:32;102387.75;;;8.16;100.00
32320;BME280;19080;51.750;5.888;2023-05-19T03:28:59;102383.69;;;8.05;100.00
32320;BME280;19080;51.750;5.888;2023-05-19T03:31:26;102392.97;;;8.14;100.00
32320;BME280;19080;51.750;5.888;2023-05-19T03:33:53;102375.75;;;8.05;100.00
32320;BME280;19080;51.750;5.888;2023-05-19T03:36:20;102371.88;;;7.98;100.00
32320;BME280;19080;51.750;5.888;2023-05-19T03:38:48;102340.13;;;7.80;100.00
32320;BME280;19080;51.750;5.888;2023-05-19T03:41:14;102373.69;;;7.99;100.00
32320;BME280;19080;51.750;5.888;2023-05-19T03:43:41;102381.84;;;8.04;100.00
32320;BME280;19080;51.750;5.888;2023-05-19T03:46:08;102395.16;;;8.05;100.00
32320;BME280;19080;51.750;5.888;2023-05-19T03:48:54;102316.09;;;7.58;100.00
32320;BME280;19080;51.750;5.888;2023-05-19T03:51:39;102408.78;;;8.13;100.00
32320;BME280;19080;51.750;5.888;2023-05-19T03:54:19;102395.91;;;8.03;100.00
32320;BME280;19080;51.750;5.888;2023-05-19T03:56:47;102416.41;;;8.07;100.00
32320;BME280;19080;51.750;5.888;2023-05-19T03:59:14;102378.59;;;7.92;100.00
32320;BME280;19080;51.750;5.888;2023-05-19T04:01:41;102390.31;;;7.97;100.00
32320;BME280;19080;51.750;5.888;2023-05-19T04:04:08;102426.44;;;8.14;100.00
32320;BME280;19080;51.750;5.888;2023-05-19T04:06:34;102422.66;;;8.09;100.00
32320;BME280;19080;51.750;5.888;2023-05-19T04:09:02;102410.59;;;8.14;100.00
32320;BME280;19080;51.750;5.888;2023-05-19T04:11:30;102407.09;;;8.15;100.00
32320;BME280;19080;51.750;5.888;2023-05-19T04:13:56;102427.06;;;8.26;100.00
32320;BME280;19080;51.750;5.888;2023-05-19T04:16:23;102406.66;;;8.24;100.00
32320;BME280;19080;51.750;5.888;2023-05-19T04:18:50;102389.41;;;8.14;100.00
32320;BME280;19080;51.750;5.888;2023-05-19T04:21:17;102410.22;;;8.24;100.00
32320;BME280;19080;51.750;5.888;2023-05-19T04:23:43;102408.06;;;8.33;100.00
32320;BME280;19080;51.750;5.888;2023-05-19T04:26:10;102272.91;;;7.58;100.00
32320;BME280;19080;51.750;5.888;2023-05-19T04:28:37;102311.13;;;7.82;100.00
32320;BME280;19080;51.750;5.888;2023-05-19T04:31:07;102299.97;;;7.88;100.00
32320;BME280;19080;51.750;5.888;2023-05-19T04:33:38;102334.41;;;8.07;100.00
32320;BME280;19080;51.750;5.888;2023-05-19T04:36:06;102368.03;;;8.27;100.00
32320;BME280;19080;51.750;5.888;2023-05-19T04:38:38;102415.44;;;8.58;100.00
32320;BME280;19080;51.750;5.888;2023-05-19T04:41:10;102394.50;;;8.45;100.00
32320;BME280;19080;51.750;5.888;2023-05-19T04:43:38;102372.91;;;8.36;100.00
32320;BME280;19080;51.750;5.888;2023-05-19T04:46:07;102398.50;;;8.55;100.00
32320;BME280;19080;51.750;5.888;2023-05-19T04:48:40;102403.13;;;8.59;100.00
32320;BME280;19080;51.750;5.888;2023-05-19T04:51:06;102410.16;;;8.58;100.00
32320;BME280;19080;51.750;5.888;2023-05-19T04:53:33;102317.88;;;8.11;100.00
32320;BME280;19080;51.750;5.888;2023-05-19T04:56:00;102416.75;;;8.68;100.00
32320;BME280;19080;51.750;5.888;2023-05-19T04:58:29;102407.09;;;8.68;100.00
32320;BME280;19080;51.750;5.888;2023-05-19T05:00:56;102411.97;;;8.78;100.00
32320;BME280;19080;51.750;5.888;2023-05-19T05:03:26;102402.69;;;8.69;100.00
32320;BME280;19080;51.750;5.888;2023-05-19T05:05:54;102416.44;;;8.79;100.00
32320;BME280;19080;51.750;5.888;2023-05-19T05:08:22;102382.94;;;8.61;100.00
32320;BME280;19080;51.750;5.888;2023-05-19T05:10:49;102406.00;;;8.82;100.00
32320;BME280;19080;51.750;5.888;2023-05-19T05:13:21;102408.03;;;8.88;100.00
32320;BME280;19080;51.750;5.888;2023-05-19T05:15:48;102410.06;;;8.94;100.00
32320;BME280;19080;51.750;5.888;2023-05-19T05:18:17;102339.59;;;8.59;100.00
32320;BME280;19080;51.750;5.888;2023-05-19T05:20:44;102416.13;;;9.10;100.00
32320;BME280;19080;51.750;5.888;2023-05-19T05:23:12;102404.84;;;9.14;100.00
32320;BME280;19080;51.750;5.888;2023-05-19T05:25:42;102414.06;;;9.23;100.00
32320;BME280;19080;51.750;5.888;2023-05-19T05:28:10;102386.16;;;9.11;100.00
32320;BME280;19080;51.750;5.888;2023-05-19T05:30:37;102420.53;;;9.29;100.00
32320;BME280;19080;51.750;5.888;2023-05-19T05:33:05;102417.13;;;9.32;100.00
32320;BME280;19080;51.750;5.888;2023-05-19T05:35:36;102410.84;;;9.30;100.00
32320;BME280;19080;51.750;5.888;2023-05-19T05:38:04;102320.78;;;8.91;100.00
32320;BME280;19080;51.750;5.888;2023-05-19T05:40:32;102411.50;;;9.64;100.00
32320;BME280;19080;51.750;5.888;2023-05-19T05:42:59;102410.78;;;9.88;100.00
32320;BME280;19080;51.750;5.888;2023-05-19T05:45:29;102434.81;;;10.32;100.00
32320;BME280;19080;51.750;5.888;2023-05-19T05:47:58;102400.69;;;10.64;100.00
32320;BME280;19080;51.750;5.888;2023-05-19T05:50:25;102425.53;;;11.11;100.00
32320;BME280;19080;51.750;5.888;2023-05-19T05:52:54;102426.97;;;11.49;100.00
32320;BME280;19080;51.750;5.888;2023-05-19T05:55:22;102425.47;;;11.79;100.00
32320;BME280;19080;51.750;5.888;2023-05-19T05:57:49;102422.91;;;12.08;100.00
32320;BME280;19080;51.750;5.888;2023-05-19T06:00:17;102421.50;;;12.46;100.00
32320;BME280;19080;51.750;5.888;2023-05-19T06:02:50;102378.50;;;12.62;100.00
32320;BME280;19080;51.750;5.888;2023-05-19T06:05:18;102424.00;;;13.25;100.00
32320;BME280;19080;51.750;5.888;2023-05-19T06:07:46;102401.75;;;13.54;100.00
32320;BME280;19080;51.750;5.888;2023-05-19T06:10:18;102423.13;;;13.56;100.00
32320;BME280;19080;51.750;5.888;2023-05-19T06:12:45;102403.91;;;13.67;100.00
32320;BME280;19080;51.750;5.888;2023-05-19T06:15:12;102385.63;;;13.83;100.00
32320;BME280;19080;51.750;5.888;2023-05-19T06:17:58;102423.31;;;14.29;100.00
32320;BME280;19080;51.750;5.888;2023-05-19T06:20:24;102422.06;;;14.50;100.00
32320;BME280;19080;51.750;5.888;2023-05-19T06:22:51;102396.81;;;14.39;100.00
32320;BME280;19080;51.750;5.888;2023-05-19T06:25:20;102422.50;;;14.68;100.00
32320;BME280;19080;51.750;5.888;2023-05-19T06:27:46;102394.09;;;14.73;100.00
32320;BME280;19080;51.750;5.888;2023-05-19T06:30:15;102428.75;;;15.08;100.00
32320;BME280;19080;51.750;5.888;2023-05-19T06:32:55;102397.59;;;15.10;100.00
32320;BME280;19080;51.750;5.888;2023-05-19T06:35:24;102402.28;;;15.20;100.00
32320;BME280;19080;51.750;5.888;2023-05-19T06:37:50;102429.28;;;15.32;100.00
32320;BME280;19080;51.750;5.888;2023-05-19T06:40:19;102410.28;;;15.18;100.00
32320;BME280;19080;51.750;5.888;2023-05-19T06:42:46;102416.63;;;15.23;100.00
32320;BME280;19080;51.750;5.888;2023-05-19T06:45:15;102416.38;;;15.13;100.00
32320;BME280;19080;51.750;5.888;2023-05-19T06:47:41;102418.47;;;15.26;100.00
32320;BME280;19080;51.750;5.888;2023-05-19T06:50:10;102402.81;;;15.46;100.00
32320;BME280;19080;51.750;5.888;2023-05-19T06:52:39;102404.59;;;15.45;100.00
32320;BME280;19080;51.750;5.888;2023-05-19T06:55:06;102416.19;;;15.91;99.58
32320;BME280;19080;51.750;5.888;2023-05-19T06:57:35;102429.56;;;16.41;94.12
32320;BME280;19080;51.750;5.888;2023-05-19T07:00:03;102429.81;;;16.56;90.59
32320;BME280;19080;51.750;5.888;2023-05-19T07:02:31;102421.16;;;16.72;87.86
32320;BME280;19080;51.750;5.888;2023-05-19T07:04:57;102357.63;;;16.68;84.82
32320;BME280;19080;51.750;5.888;2023-05-19T07:07:24;102428.31;;;17.38;77.84
32320;BME280;19080;51.750;5.888;2023-05-19T07:09:53;102418.50;;;17.40;75.87
32320;BME280;19080;51.750;5.888;2023-05-19T07:12:20;102421.38;;;17.55;71.39
32320;BME280;19080;51.750;5.888;2023-05-19T07:14:47;102421.63;;;17.75;72.32
32320;BME280;19080;51.750;5.888;2023-05-19T07:17:15;102329.00;;;17.38;68.52
32320;BME280;19080;51.750;5.888;2023-05-19T07:19:43;102406.56;;;17.91;67.70
32320;BME280;19080;51.750;5.888;2023-05-19T07:22:10;102425.44;;;17.97;65.67
32320;BME280;19080;51.750;5.888;2023-05-19T07:24:37;102427.91;;;17.77;65.10
32320;BME280;19080;51.750;5.888;2023-05-19T07:27:04;102427.81;;;17.70;66.99
32320;BME280;19080;51.750;5.888;2023-05-19T07:29:31;102412.31;;;17.46;66.88
32320;BME280;19080;51.750;5.888;2023-05-19T07:31:57;102436.03;;;17.82;67.70
32320;BME280;19080;51.750;5.888;2023-05-19T07:34:24;102430.75;;;17.93;64.24
32320;BME280;19080;51.750;5.888;2023-05-19T07:36:50;102429.06;;;18.02;62.94
32320;BME280;19080;51.750;5.888;2023-05-19T07:39:17;102401.13;;;17.85;64.61
32320;BME280;19080;51.750;5.888;2023-05-19T07:41:44;102425.53;;;18.06;64.85
32320;BME280;19080;51.750;5.888;2023-05-19T07:44:17;102417.53;;;18.15;62.24
32320;BME280;19080;51.750;5.888;2023-05-19T07:46:44;102355.56;;;17.96;60.17
32320;BME280;19080;51.750;5.888;2023-05-19T07:49:11;102431.34;;;18.57;61.57
32320;BME280;19080;51.750;5.888;2023-05-19T07:51:37;102399.19;;;18.69;61.16
32320;BME280;19080;51.750;5.888;2023-05-19T07:54:04;102418.31;;;19.25;59.60
32320;BME280;19080;51.750;5.888;2023-05-19T07:56:31;102423.88;;;19.65;56.28
32320;BME280;19080;51.750;5.888;2023-05-19T07:58:57;102428.41;;;19.79;54.26
32320;BME280;19080;51.750;5.888;2023-05-19T08:01:24;102432.03;;;19.88;54.51
32320;BME280;19080;51.750;5.888;2023-05-19T08:03:51;102423.06;;;20.10;55.76
32320;BME280;19080;51.750;5.888;2023-05-19T08:06:18;102405.09;;;20.07;54.09
32320;BME280;19080;51.750;5.888;2023-05-19T08:08:45;102406.91;;;20.31;52.04
32320;BME280;19080;51.750;5.888;2023-05-19T08:11:12;102418.63;;;20.50;51.59
32320;BME280;19080;51.750;5.888;2023-05-19T08:13:39;102400.59;;;20.73;52.10
32320;BME280;19080;51.750;5.888;2023-05-19T08:16:05;102413.06;;;21.26;50.43
32320;BME280;19080;51.750;5.888;2023-05-19T08:18:32;102398.63;;;21.33;48.36
32320;BME280;19080;51.750;5.888;2023-05-19T08:20:59;102413.84;;;21.50;47.68
32320;BME280;19080;51.750;5.888;2023-05-19T08:23:26;102402.06;;;21.66;48.22
32320;BME280;19080;51.750;5.888;2023-05-19T08:25:53;102342.63;;;21.63;46.89
32320;BME280;19080;51.750;5.888;2023-05-19T08:28:19;102368.47;;;22.05;46.31
32320;BME280;19080;51.750;5.888;2023-05-19T08:30:46;102364.03;;;21.93;46.32
32320;BME280;19080;51.750;5.888;2023-05-19T08:33:13;102377.25;;;22.34;44.45
32320;BME280;19080;51.750;5.888;2023-05-19T08:35:40;102318.91;;;21.98;45.90
32320;BME280;19080;51.750;5.888;2023-05-19T08:38:06;102385.91;;;22.67;43.48
32320;BME280;19080;51.750;5.888;2023-05-19T08:40:36;102387.94;;;22.47;44.15
32320;BME280;19080;51.750;5.888;2023-05-19T08:43:03;102379.78;;;22.51;45.22
32320;BME280;19080;51.750;5.888;2023-05-19T08:45:30;102364.28;;;22.65;44.48
32320;BME280;19080;51.750;5.888;2023-05-19T08:48:00;102374.00;;;22.85;44.32
32320;BME280;19080;51.750;5.888;2023-05-19T08:50:30;102318.25;;;22.65;43.42
32320;BME280;19080;51.750;5.888;2023-05-19T08:53:15;102368.47;;;22.97;44.11
32320;BME280;19080;51.750;5.888;2023-05-19T08:56:10;102300.16;;;22.70;42.60
32320;BME280;19080;51.750;5.888;2023-05-19T08:58:40;102355.38;;;23.32;43.57
32320;BME280;19080;51.750;5.888;2023-05-19T09:01:12;102300.28;;;23.32;41.47
32320;BME280;19080;51.750;5.888;2023-05-19T09:03:39;102329.84;;;23.49;40.31
32320;BME280;19080;51.750;5.888;2023-05-19T09:06:07;102303.00;;;23.30;40.20
32320;BME280;19080;51.750;5.888;2023-05-19T09:08:34;102337.59;;;23.10;41.79
32320;BME280;19080;51.750;5.888;2023-05-19T09:11:01;102351.91;;;23.21;41.96
32320;BME280;19080;51.750;5.888;2023-05-19T09:13:28;102348.06;;;23.37;41.84
32320;BME280;19080;51.750;5.888;2023-05-19T09:15:56;102362.00;;;23.76;40.85
32320;BME280;19080;51.750;5.888;2023-05-19T09:18:24;102285.00;;;23.26;37.06
32320;BME280;19080;51.750;5.888;2023-05-19T09:21:01;102344.72;;;23.83;36.87
32320;BME280;19080;51.750;5.888;2023-05-19T09:23:30;102329.31;;;23.85;37.68
32320;BME280;19080;51.750;5.888;2023-05-19T09:26:03;102280.94;;;23.58;38.18
32320;BME280;19080;51.750;5.888;2023-05-19T09:28:31;102279.84;;;23.69;37.47
32320;BME280;19080;51.750;5.888;2023-05-19T09:31:04;102337.16;;;23.42;36.58
32320;BME280;19080;51.750;5.888;2023-05-19T09:33:33;102334.78;;;23.18;37.80
32320;BME280;19080;51.750;5.888;2023-05-19T09:36:00;102333.38;;;23.57;37.78
32320;BME280;19080;51.750;5.888;2023-05-19T09:38:28;102327.25;;;23.99;36.69
32320;BME280;19080;51.750;5.888;2023-05-19T09:40:55;102336.72;;;24.28;35.59
32320;BME280;19080;51.750;5.888;2023-05-19T09:43:25;102322.91;;;24.40;35.71
32320;BME280;19080;51.750;5.888;2023-05-19T09:46:12;102323.53;;;24.56;33.77
32320;BME280;19080;51.750;5.888;2023-05-19T09:48:41;102308.19;;;24.53;34.37
32320;BME280;19080;51.750;5.888;2023-05-19T09:51:07;102299.53;;;24.33;35.04
32320;BME280;19080;51.750;5.888;2023-05-19T09:53:37;102309.44;;;24.36;33.74
32320;BME280;19080;51.750;5.888;2023-05-19T09:56:07;102309.72;;;24.20;34.24
32320;BME280;19080;51.750;5.888;2023-05-19T09:58:34;102314.56;;;24.01;34.98
32320;BME280;19080;51.750;5.888;2023-05-19T10:01:05;102320.31;;;23.83;34.60
32320;BME280;19080;51.750;5.888;2023-05-19T10:03:32;102260.59;;;23.28;34.53
32320;BME280;19080;51.750;5.888;2023-05-19T10:06:00;102222.56;;;22.69;35.13
32320;BME280;19080;51.750;5.888;2023-05-19T10:08:27;102322.97;;;23.23;35.18
32320;BME280;19080;51.750;5.888;2023-05-19T10:10:56;102247.47;;;22.99;34.55
32320;BME280;19080;51.750;5.888;2023-05-19T10:13:24;102328.50;;;23.14;35.09
32320;BME280;19080;51.750;5.888;2023-05-19T10:15:51;102315.75;;;23.22;34.79
32320;BME280;19080;51.750;5.888;2023-05-19T10:18:25;102293.75;;;23.45;35.03
32320;BME280;19080;51.750;5.888;2023-05-19T10:20:53;102230.75;;;23.86;34.65
32320;BME280;19080;51.750;5.888;2023-05-19T10:23:19;102312.94;;;24.87;33.29
32320;BME280;19080;51.750;5.888;2023-05-19T10:25:48;102254.75;;;24.55;33.23
32320;BME280;19080;51.750;5.888;2023-05-19T10:28:17;102312.81;;;25.36;33.39
32320;BME280;19080;51.750;5.888;2023-05-19T10:30:48;102216.34;;;25.15;32.81
32320;BME280;19080;51.750;5.888;2023-05-19T10:33:17;102230.97;;;25.47;31.96
32320;BME280;19080;51.750;5.888;2023-05-19T10:38:47;102283.47;;;25.87;31.48
32320;BME280;19080;51.750;5.888;2023-05-19T10:42:06;102280.50;;;26.63;30.87
32320;BME280;19080;51.750;5.888;2023-05-19T10:47:00;102290.75;;;27.45;29.35
32320;BME280;19080;51.750;5.888;2023-05-19T10:49:27;102278.16;;;26.82;29.60
32320;BME280;19080;51.750;5.888;2023-05-19T10:51:54;102278.56;;;26.68;30.35
32320;BME280;19080;51.750;5.888;2023-05-19T10:54:41;102284.88;;;27.01;30.05
32320;BME280;19080;51.750;5.888;2023-05-19T10:57:13;102242.38;;;27.23;29.37
32320;BME280;19080;51.750;5.888;2023-05-19T10:59:39;102251.75;;;27.43;28.01
32320;BME280;19080;51.750;5.888;2023-05-19T11:02:07;102276.94;;;26.92;28.19
32320;BME280;19080;51.750;5.888;2023-05-19T11:04:44;102195.38;;;26.86;27.57
32320;BME280;19080;51.750;5.888;2023-05-19T11:07:17;102266.13;;;27.48;28.80
32320;BME280;19080;51.750;5.888;2023-05-19T11:09:51;102257.66;;;27.83;28.41
32320;BME280;19080;51.750;5.888;2023-05-19T11:12:23;102279.16;;;28.19;27.49
32320;BME280;19080;51.750;5.888;2023-05-19T11:14:54;102281.31;;;28.09;27.27
32320;BME280;19080;51.750;5.888;2023-05-19T11:17:23;102271.06;;;28.16;27.36
32320;BME280;19080;51.750;5.888;2023-05-19T11:19:53;102216.00;;;28.03;26.47
32320;BME280;19080;51.750;5.888;2023-05-19T11:22:25;102270.22;;;28.40;27.72
32320;BME280;19080;51.750;5.888;2023-05-19T11:24:55;102209.09;;;28.18;27.12
32320;BME280;19080;51.750;5.888;2023-05-19T11:27:30;102277.91;;;28.29;28.76
32320;BME280;19080;51.750;5.888;2023-05-19T11:30:03;102254.63;;;28.92;26.58
32320;BME280;19080;51.750;5.888;2023-05-19T11:32:35;102264.47;;;28.96;27.09
32320;BME280;19080;51.750;5.888;2023-05-19T11:35:05;102269.59;;;29.05;26.39
32320;BME280;19080;51.750;5.888;2023-05-19T11:37:33;102253.72;;;29.59;25.08
32320;BME280;19080;51.750;5.888;2023-05-19T11:40:01;102191.88;;;29.33;25.15
32320;BME280;19080;51.750;5.888;2023-05-19T11:42:29;102252.06;;;29.76;26.10
32320;BME280;19080;51.750;5.888;2023-05-19T11:44:56;102256.03;;;29.69;25.42
32320;BME280;19080;51.750;5.888;2023-05-19T11:47:23;102241.13;;;29.76;25.99
32320;BME280;19080;51.750;5.888;2023-05-19T11:49:50;102193.94;;;29.28;25.48
32320;BME280;19080;51.750;5.888;2023-05-19T11:52:24;102238.41;;;29.97;25.98
32320;BME280;19080;51.750;5.888;2023-05-19T11:54:50;102241.47;;;30.11;25.88
32320;BME280;19080;51.750;5.888;2023-05-19T11:57:19;102252.25;;;30.55;25.36
32320;BME280;19080;51.750;5.888;2023-05-19T11:59:46;102197.38;;;30.56;25.36
32320;BME280;19080;51.750;5.888;2023-05-19T12:02:24;102216.19;;;30.84;24.38
32320;BME280;19080;51.750;5.888;2023-05-19T12:04:53;102225.16;;;31.06;23.84
32320;BME280;19080;51.750;5.888;2023-05-19T12:07:23;102183.34;;;31.01;24.60
32320;BME280;19080;51.750;5.888;2023-05-19T12:09:51;102223.16;;;30.91;23.98
32320;BME280;19080;51.750;5.888;2023-05-19T12:12:19;102146.19;;;29.97;24.39
32320;BME280;19080;51.750;5.888;2023-05-19T12:14:49;102234.69;;;30.79;24.52
32320;BME280;19080;51.750;5.888;2023-05-19T12:17:20;102169.19;;;30.73;24.58
32320;BME280;19080;51.750;5.888;2023-05-19T12:19:49;102171.78;;;30.76;24.22
32320;BME280;19080;51.750;5.888;2023-05-19T12:22:16;102232.59;;;29.42;26.41
32320;BME280;19080;51.750;5.888;2023-05-19T12:24:44;102219.06;;;30.01;25.88
32320;BME280;19080;51.750;5.888;2023-05-19T12:27:16;102229.88;;;30.84;24.75
32320;BME280;19080;51.750;5.888;2023-05-19T12:29:48;102212.03;;;30.94;25.13
32320;BME280;19080;51.750;5.888;2023-05-19T12:32:16;102218.69;;;31.26;24.31
32320;BME280;19080;51.750;5.888;2023-05-19T12:34:42;102218.69;;;31.62;23.85
32320;BME280;19080;51.750;5.888;2023-05-19T12:37:09;102168.06;;;31.68;23.33
32320;BME280;19080;51.750;5.888;2023-05-19T12:39:38;102195.91;;;31.60;23.52
32320;BME280;19080;51.750;5.888;2023-05-19T12:42:09;102213.34;;;31.23;24.04
32320;BME280;19080;51.750;5.888;2023-05-19T12:44:37;102214.16;;;31.61;23.53
32320;BME280;19080;51.750;5.888;2023-05-19T12:47:05;102203.56;;;32.24;23.46
32320;BME280;19080;51.750;5.888;2023-05-19T12:49:32;102157.41;;;31.96;23.99
32320;BME280;19080;51.750;5.888;2023-05-19T12:52:00;102151.81;;;32.15;23.46
32320;BME280;19080;51.750;5.888;2023-05-19T12:54:38;102002.16;;;28.93;24.83
32320;BME280;19080;51.750;5.888;2023-05-19T12:57:06;102197.31;;;29.76;25.50
32320;BME280;19080;51.750;5.888;2023-05-19T12:59:33;102207.56;;;30.73;24.17
32320;BME280;19080;51.750;5.888;2023-05-19T13:02:05;102204.44;;;30.62;24.31
32320;BME280;19080;51.750;5.888;2023-05-19T13:04:31;102158.34;;;31.07;24.40
32320;BME280;19080;51.750;5.888;2023-05-19T13:06:58;102179.41;;;31.43;23.50
32320;BME280;19080;51.750;5.888;2023-05-19T13:09:25;102192.25;;;31.96;23.45
32320;BME280;19080;51.750;5.888;2023-05-19T13:11:53;102159.38;;;31.77;23.69
32320;BME280;19080;51.750;5.888;2023-05-19T13:14:20;102174.06;;;31.93;23.10
32320;BME280;19080;51.750;5.888;2023-05-19T13:16:47;102178.22;;;31.49;23.79
32320;BME280;19080;51.750;5.888;2023-05-19T13:19:17;102135.81;;;31.20;23.89